Time;durP1;ratioP1;P1;durP2;ratioP2;P2;SDS_P1;SDS_P2;PMS_P1;PMS_P2;Temp;Humidity;BMP_temperature;BMP_pressure;BME280_temperature;BME280_humidity;BME280_pressure;Samples;Min_cycle;Max_cycle;Signal;HPM_P1;HPM_P2
2021/10/14 00:00:43;;;;;;;9.95;7.72;;;179.50;2252.80;;;;;;4997373;28;20140;-91
2021/10/14 00:03:09;;;;;;;12.40;7.60;;;179.40;2252.80;;;;;;4997439;28;20037;-91
2021/10/14 00:05:35;;;;;;;11.95;6.40;;;179.40;2252.80;;;;;;4997287;28;20053;-92
2021/10/14 00:08:02;;;;;;;8.10;6.13;;;179.40;2252.80;;;;;;4997354;28;20026;-91
2021/10/14 00:10:29;;;;;;;9.18;5.85;;;179.30;2252.80;;;;;;4997190;28;20018;-92
2021/10/14 00:12:58;;;;;;;8.38;6.05;;;179.30;2252.80;;;;;;4997448;28;20033;-93
2021/10/14 00:15:25;;;;;;;9.45;6.05;;;179.30;2252.80;;;;;;4997323;28;20022;-93
2021/10/14 00:17:51;;;;;;;7.28;5.63;;;179.30;2252.80;;;;;;4997313;28;20682;-91
2021/10/14 00:20:17;;;;;;;8.68;6.75;;;179.30;2252.80;;;;;;4997312;28;20120;-93
2021/10/14 00:22:43;;;;;;;8.73;6.20;;;179.30;2252.80;;;;;;4997264;28;20029;-91
2021/10/14 00:25:09;;;;;;;9.00;5.88;;;179.30;2252.80;;;;;;4997000;28;20120;-92
2021/10/14 00:27:35;;;;;;;12.98;7.28;;;179.30;2252.80;;;;;;4997293;28;20061;-92
2021/10/14 00:30:02;;;;;;;10.07;5.68;;;179.30;2252.80;;;;;;4997001;28;20117;-91
2021/10/14 00:32:28;;;;;;;9.75;5.20;;;179.40;2252.80;;;;;;4996631;28;20041;-93
2021/10/14 00:34:54;;;;;;;14.43;6.32;;;179.40;2252.80;;;;;;4997038;28;20026;-93
2021/10/14 00:37:20;;;;;;;5.97;4.93;;;179.30;2252.80;;;;;;4996796;28;20548;-90
2021/10/14 00:39:46;;;;;;;7.50;5.35;;;179.30;2252.80;;;;;;4996827;28;20048;-92
2021/10/14 00:42:12;;;;;;;10.52;7.35;;;179.20;2252.80;;;;;;4996914;28;20033;-92
2021/10/14 06:31:57;;;;;;;45.42;23.58;;;154.10;2252.80;;;;;;5027564;23;20082;-90
2021/10/14 06:34:23;;;;;;;40.50;20.40;;;154.20;2252.80;;;;;;4922318;29;20038;-91
2021/10/14 06:36:49;;;;;;;34.03;20.13;;;154.30;2252.80;;;;;;4921868;29;20035;-89
2021/10/14 06:39:15;;;;;;;42.55;23.55;;;154.40;2252.80;;;;;;4921962;29;20441;-90
2021/10/14 06:41:40;;;;;;;55.85;29.95;;;154.50;2252.80;;;;;;4921533;29;20079;-91
2021/10/14 06:44:09;;;;;;;35.42;22.80;;;179.20;2252.80;;;;;;4921602;29;20087;-91
2021/10/14 06:46:36;;;;;;;32.90;19.38;;;179.30;2252.80;;;;;;4921626;29;20508;-89
2021/10/14 06:49:03;;;;;;;22.35;15.73;;;179.30;2252.80;;;;;;4921405;29;20027;-88
2021/10/14 06:51:29;;;;;;;26.05;17.65;;;179.40;2252.80;;;;;;4928966;29;20524;-91
2021/10/14 06:53:55;;;;;;;25.40;17.70;;;179.50;2252.80;;;;;;4931738;29;20023;-91
2021/10/14 06:56:20;;;;;;;22.92;16.90;;;179.60;2252.80;;;;;;4930376;29;20484;-91
2021/10/14 06:58:46;;;;;;;19.80;14.73;;;179.60;2252.80;;;;;;4931530;29;20027;-90
2021/10/14 07:01:13;;;;;;;21.92;15.05;;;179.70;2252.80;;;;;;4930190;29;20539;-92
2021/10/14 07:03:39;;;;;;;27.38;16.92;;;179.70;2252.80;;;;;;4924727;29;20117;-91
2021/10/14 07:06:05;;;;;;;23.38;16.90;;;179.70;2252.80;;;;;;4931287;29;20039;-90
2021/10/14 07:08:31;;;;;;;27.70;20.38;;;179.80;2252.80;;;;;;4927000;29;20421;-91
2021/10/14 07:10:58;;;;;;;29.55;18.95;;;179.90;2252.80;;;;;;4930359;29;20034;-92
2021/10/14 07:13:24;;;;;;;29.38;18.50;;;180.00;2252.80;;;;;;4931009;29;20028;-91
2021/10/14 07:15:50;;;;;;;36.97;19.48;;;180.10;2252.80;;;;;;4928997;29;20400;-93
2021/10/14 07:18:16;;;;;;;29.75;18.45;;;180.10;2252.80;;;;;;4930423;29;20027;-92
2021/10/14 07:20:42;;;;;;;19.83;14.20;;;180.10;2252.80;;;;;;4930660;29;20028;-92
2021/10/14 07:23:10;;;;;;;18.52;14.43;;;180.10;2252.80;;;;;;4928864;29;20031;-91
2021/10/14 07:25:37;;;;;;;21.58;16.23;;;204.80;2252.80;;;;;;4929833;29;20465;-91
2021/10/14 07:28:03;;;;;;;19.70;14.02;;;204.80;2252.80;;;;;;4931824;29;20024;-92
2021/10/14 07:30:29;;;;;;;19.58;13.90;;;204.80;2252.80;;;;;;4919452;29;20059;-91
2021/10/14 07:32:56;;;;;;;23.55;16.73;;;205.00;2252.80;;;;;;4900263;29;20036;-91
2021/10/14 07:35:22;;;;;;;240.30;178.18;;;205.00;2252.80;;;;;;4883292;29;20037;-92
2021/10/14 07:37:48;;;;;;;35.08;27.20;;;205.10;2252.80;;;;;;4894539;29;20105;-89
2021/10/14 07:40:14;;;;;;;32.83;26.13;;;205.20;2252.80;;;;;;4887858;29;20109;-93
2021/10/14 07:42:40;;;;;;;19.27;13.63;;;205.20;2252.80;;;;;;4887608;29;20613;-93
2021/10/14 07:45:06;;;;;;;18.65;13.93;;;205.30;2252.80;;;;;;4888974;29;20032;-93
2021/10/14 07:47:32;;;;;;;18.67;13.63;;;205.30;2252.80;;;;;;4887554;29;20052;-95
2021/10/14 07:49:57;;;;;;;33.67;27.30;;;205.30;2252.80;;;;;;4872408;29;20459;-93
2021/10/14 07:52:24;;;;;;;18.65;13.57;;;205.40;2252.80;;;;;;4888819;29;20129;-92
2021/10/14 07:54:49;;;;;;;28.98;25.80;;;205.40;2252.80;;;;;;4885359;29;20037;-93
2021/10/14 07:57:15;;;;;;;85.65;72.70;;;205.40;2252.80;;;;;;4884651;29;20052;-92
2021/10/14 07:59:42;;;;;;;59.67;42.65;;;205.40;2252.80;;;;;;4889511;29;20471;-92
2021/10/14 08:02:08;;;;;;;28.45;19.42;;;205.30;2252.80;;;;;;4877090;29;20064;-93
2021/10/14 08:04:34;;;;;;;75.28;42.05;;;205.60;2252.80;;;;;;4898372;29;20383;-92
2021/10/14 08:07:00;;;;;;;213.35;123.63;;;205.60;2252.80;;;;;;4873843;29;20060;-94
2021/10/14 08:09:26;;;;;;;31.33;19.98;;;205.60;2252.80;;;;;;4889420;29;20398;-89
2021/10/14 08:11:52;;;;;;;106.88;65.80;;;205.60;2252.80;;;;;;4889512;29;20060;-94
2021/10/14 08:14:17;;;;;;;84.03;54.22;;;205.60;2252.80;;;;;;4885677;29;20120;-93
2021/10/14 08:16:43;;;;;;;131.07;80.80;;;205.60;2252.80;;;;;;4886928;29;20131;-90
2021/10/14 08:19:09;;;;;;;61.13;41.80;;;205.70;2252.80;;;;;;4888700;29;20367;-92
2021/10/14 08:21:35;;;;;;;154.02;78.40;;;205.70;2252.80;;;;;;4890025;29;20025;-94
2021/10/14 08:24:01;;;;;;;24.95;18.75;;;230.40;2252.80;;;;;;4888742;29;20414;-93
2021/10/14 08:26:27;;;;;;;43.40;31.25;;;230.40;2252.80;;;;;;4873222;29;20035;-93
2021/10/14 08:28:54;;;;;;;413.45;225.10;;;205.60;2252.80;;;;;;4885988;29;20048;-94
2021/10/14 08:31:23;;;;;;;38.13;22.95;;;230.40;2252.80;;;;;;4887553;29;20052;-94
2021/10/14 08:33:49;;;;;;;46.75;28.77;;;230.40;2252.80;;;;;;4890021;29;20058;-94
2021/10/14 08:36:15;;;;;;;39.42;22.67;;;230.40;2252.80;;;;;;4886950;29;20032;-93
2021/10/14 08:38:41;;;;;;;25.95;17.33;;;230.50;2252.80;;;;;;4889614;29;20028;-94
2021/10/14 08:41:08;;;;;;;13.55;10.52;;;230.60;2252.80;;;;;;4890484;29;20033;-94
2021/10/14 08:43:36;;;;;;;124.80;111.88;;;230.70;2252.80;;;;;;4874211;29;20521;-94
2021/10/14 08:46:02;;;;;;;44.30;28.90;;;230.80;2252.80;;;;;;4892609;29;20020;-93
2021/10/14 08:48:29;;;;;;;46.25;24.40;;;230.80;2252.80;;;;;;4886221;29;20021;-95
2021/10/14 08:50:55;;;;;;;64.50;36.10;;;230.90;2252.80;;;;;;4891385;29;20018;-91
2021/10/14 08:53:21;;;;;;;61.97;34.63;;;231.00;2252.80;;;;;;4874957;29;20418;-94
2021/10/14 08:55:47;;;;;;;84.03;36.80;;;231.00;2252.80;;;;;;4873328;29;20111;-92
2021/10/14 08:58:14;;;;;;;74.90;30.88;;;231.00;2252.80;;;;;;4886941;29;20119;-94
2021/10/14 09:00:43;;;;;;;121.65;46.47;;;231.00;2252.80;;;;;;4887187;29;20021;-94
2021/10/14 09:03:30;;;;;;;140.23;56.10;;;230.90;2252.80;;;;;;4891546;29;20024;-85
2021/10/14 09:05:56;;;;;;;136.30;81.70;;;230.90;2252.80;;;;;;4893168;29;20414;-86
2021/10/14 09:08:41;;;;;;;59.40;28.27;;;230.90;2252.80;;;;;;4890015;29;20029;-86
2021/10/14 09:11:10;;;;;;;60.50;28.17;;;230.90;2252.80;;;;;;4872416;29;20039;-86
2021/10/14 09:13:57;;;;;;;33.75;19.45;;;230.90;2252.80;;;;;;4870817;29;20046;-86
2021/10/14 09:16:28;;;;;;;20.77;14.63;;;230.90;2252.80;;;;;;4885702;29;20510;-95
2021/10/14 09:19:09;;;;;;;32.03;19.25;;;231.00;2252.80;;;;;;4872375;29;20119;-87
2021/10/14 09:21:35;;;;;;;14.75;10.32;;;231.00;2252.80;;;;;;4891771;29;20500;-93
2021/10/14 09:24:01;;;;;;;45.88;26.48;;;231.00;2252.80;;;;;;4873504;29;20037;-86
2021/10/14 09:26:33;;;;;;;246.00;138.13;;;231.00;2252.80;;;;;;4890903;29;20021;-85
2021/10/14 09:29:11;;;;;;;32.95;19.55;;;231.10;2252.80;;;;;;4894902;29;20021;-86
2021/10/14 09:32:00;;;;;;;29.20;16.30;;;231.00;2252.80;;;;;;4888447;29;20383;-85
2021/10/14 09:34:35;;;;;;;77.63;44.03;;;231.00;2252.80;;;;;;4891312;29;20115;-86
2021/10/14 09:37:04;;;;;;;95.13;48.03;;;231.00;2252.80;;;;;;4888439;29;20047;-85
2021/10/14 09:39:31;;;;;;;108.88;60.90;;;231.30;2252.80;;;;;;4889310;29;20016;-84
2021/10/14 09:41:58;;;;;;;158.00;88.22;;;230.90;2252.80;;;;;;4888238;29;20395;-84
2021/10/14 09:44:25;;;;;;;41.17;24.25;;;231.00;2252.80;;;;;;4889997;29;20032;-86
2021/10/14 09:46:53;;;;;;;43.30;25.02;;;230.90;2252.80;;;;;;4890132;29;20037;-85
2021/10/14 09:49:35;;;;;;;60.90;33.47;;;231.00;2252.80;;;;;;4888139;29;20374;-85
2021/10/14 09:52:01;;;;;;;35.80;21.85;;;231.00;2252.80;;;;;;4890882;29;20031;-85
2021/10/14 09:54:31;;;;;;;80.80;43.13;;;231.00;2252.80;;;;;;4889823;29;20040;-94
2021/10/14 09:56:58;;;;;;;146.80;75.63;;;231.00;2252.80;;;;;;4888819;29;20418;-85
2021/10/14 09:59:24;;;;;;;105.45;53.90;;;231.00;2252.80;;;;;;4890347;29;20029;-93
2021/10/14 10:01:53;;;;;;;45.40;22.23;;;231.00;2252.80;;;;;;4889608;29;20413;-85
2021/10/14 10:04:26;;;;;;;140.18;63.25;;;231.00;2252.80;;;;;;4888159;29;20029;-85
2021/10/14 10:06:54;;;;;;;142.32;63.95;;;230.90;2252.80;;;;;;4888425;29;20033;-86
2021/10/14 10:09:22;;;;;;;35.22;19.20;;;231.00;2252.80;;;;;;4885854;29;20027;-85
2021/10/14 10:11:57;;;;;;;87.10;42.38;;;231.00;2252.80;;;;;;4889066;29;20043;-85
2021/10/14 10:14:25;;;;;;;426.90;200.02;;;231.00;2252.80;;;;;;4889551;29;20017;-85
2021/10/14 10:16:59;;;;;;;238.40;101.57;;;231.10;2252.80;;;;;;4890778;29;20487;-85
2021/10/14 10:19:48;;;;;;;50.75;25.80;;;231.10;2252.80;;;;;;4890005;29;20055;-85
2021/10/14 10:22:49;;;;;;;57.30;30.85;;;231.20;2252.80;;;;;;4874255;29;20029;-85
2021/10/14 10:25:25;;;;;;;103.45;49.30;;;256.00;2252.80;;;;;;4834053;29;20041;-85
2021/10/14 10:27:52;;;;;;;33.60;18.00;;;256.30;2252.80;;;;;;4818743;29;20049;-83
2021/10/14 10:30:39;;;;;;;12.38;6.80;;;256.70;2176.00;;;;;;4819705;29;20038;-84
2021/10/14 10:33:07;;;;;;;139.52;52.25;;;281.60;2150.40;;;;;;4836876;29;20438;-84
2021/10/14 10:35:47;;;;;;;27.65;13.02;;;281.80;2176.00;;;;;;4835983;29;20042;-96
2021/10/14 10:38:28;;;;;;;32.13;14.75;;;281.80;2124.80;;;;;;4836109;29;20083;-84
2021/10/14 10:40:56;;;;;;;87.10;37.33;;;281.80;2073.60;;;;;;4851633;29;20038;-91
2021/10/14 10:43:29;;;;;;;102.63;44.10;;;281.60;2099.20;;;;;;4830440;29;20030;-85
2021/10/14 10:45:57;;;;;;;22.20;12.82;;;281.70;2099.20;;;;;;4827576;29;20041;-85
2021/10/14 10:48:38;;;;;;;18.10;9.90;;;281.80;2099.20;;;;;;4842460;29;20046;-83
2021/10/14 10:51:06;;;;;;;111.43;50.97;;;281.60;2073.60;;;;;;4827281;29;20373;-84
2021/10/14 10:53:48;;;;;;;147.45;65.53;;;281.60;2048.00;;;;;;4827368;29;20049;-88
2021/10/14 10:56:34;;;;;;;55.67;25.05;;;281.60;2048.00;;;;;;4828377;29;20026;-96
2021/10/14 10:59:02;;;;;;;231.98;98.53;;;281.60;2099.20;;;;;;4852285;29;20063;-95
2021/10/14 11:01:29;;;;;;;21.27;10.75;;;281.60;2124.80;;;;;;4879912;29;20176;-86
2021/10/14 11:04:06;;;;;;;55.83;25.02;;;256.80;2048.00;;;;;;4868804;29;20037;-88
2021/10/14 11:06:35;;;;;;;18.60;8.95;;;256.80;2073.60;;;;;;4881648;29;20024;-86
2021/10/14 11:09:05;;;;;;;105.38;47.47;;;256.80;2073.60;;;;;;4881030;29;20033;-87
2021/10/14 11:11:32;;;;;;;207.95;92.28;;;256.80;2073.60;;;;;;4876430;29;20056;-86
2021/10/14 11:13:58;;;;;;;85.85;36.75;;;256.70;2099.20;;;;;;4882100;29;20106;-86
2021/10/14 11:16:27;;;;;;;180.60;81.90;;;256.60;2124.80;;;;;;4864818;29;20032;-86
2021/10/14 11:18:55;;;;;;;266.83;123.05;;;256.60;2176.00;;;;;;4864885;29;20052;-89
2021/10/14 11:21:24;;;;;;;82.18;38.65;;;256.40;2176.00;;;;;;4881822;29;20081;-87
2021/10/14 11:23:56;;;;;;;64.20;31.23;;;256.50;2176.00;;;;;;4874832;29;20037;-92
2021/10/14 11:26:32;;;;;;;79.95;38.75;;;256.40;2176.00;;;;;;4873445;29;20386;-86
2021/10/14 11:29:12;;;;;;;240.25;116.35;;;256.40;2176.00;;;;;;4869973;29;20478;-86
2021/10/14 11:31:54;;;;;;;26.70;14.95;;;256.40;2201.60;;;;;;4879805;29;20068;-96
2021/10/14 11:34:26;;;;;;;30.85;16.80;;;256.50;2201.60;;;;;;4865020;29;20416;-87
2021/10/14 11:36:54;;;;;;;72.13;36.55;;;256.60;2201.60;;;;;;4881100;29;20029;-87
2021/10/14 11:39:24;;;;;;;10.68;7.85;;;256.60;2150.40;;;;;;4881082;29;20505;-88
2021/10/14 11:41:56;;;;;;;24.85;13.32;;;256.60;2099.20;;;;;;4879437;29;20048;-88
2021/10/14 11:44:24;;;;;;;123.85;63.72;;;256.80;2099.20;;;;;;4879829;29;20030;-89
2021/10/14 11:46:53;;;;;;;55.40;30.30;;;281.60;2124.80;;;;;;4880104;29;20032;-89
2021/10/14 11:49:18;;;;;;;63.28;34.33;;;281.60;2099.20;;;;;;4879959;29;20550;-88
2021/10/14 11:51:45;;;;;;;18.35;12.65;;;281.70;2124.80;;;;;;4880041;29;20124;-88
2021/10/14 11:54:13;;;;;;;56.63;30.38;;;281.70;2099.20;;;;;;4864503;29;20149;-88
2021/10/14 11:56:50;;;;;;;21.00;13.25;;;281.70;2099.20;;;;;;4879767;29;20101;-88
2021/10/14 11:59:18;;;;;;;13.85;9.75;;;281.70;2124.80;;;;;;4864344;29;20035;-88
2021/10/14 12:01:56;;;;;;;41.38;22.02;;;281.60;2150.40;;;;;;4880959;29;20116;-87
2021/10/14 12:04:58;;;;;;;72.85;39.42;;;281.70;2124.80;;;;;;4864312;29;20067;-85
2021/10/14 12:07:26;;;;;;;41.88;27.70;;;281.80;2124.80;;;;;;4879765;29;20037;-86
2021/10/14 12:09:54;;;;;;;19.38;11.93;;;282.00;2099.20;;;;;;4879324;29;20033;-83
2021/10/14 12:12:25;;;;;;;21.63;12.10;;;282.10;2073.60;;;;;;4879045;29;20088;-84
2021/10/14 12:15:07;;;;;;;39.08;20.25;;;282.00;2048.00;;;;;;4883410;29;20029;-84
2021/10/14 12:17:44;;;;;;;46.53;23.10;;;282.10;2073.60;;;;;;4897258;29;20104;-83
2021/10/14 12:20:13;;;;;;;59.33;30.25;;;282.00;2073.60;;;;;;4896153;29;20058;-92
2021/10/14 12:22:41;;;;;;;62.78;32.40;;;282.10;2073.60;;;;;;4888666;29;20104;-95
2021/10/14 12:25:08;;;;;;;28.27;16.65;;;282.00;2073.60;;;;;;4888716;29;20039;-85
2021/10/14 12:27:51;;;;;;;155.50;81.97;;;281.90;2099.20;;;;;;4887016;29;20021;-86
2021/10/14 12:30:18;;;;;;;35.50;20.23;;;281.80;2099.20;;;;;;4889960;29;20456;-85
2021/10/14 12:32:44;;;;;;;81.90;41.38;;;281.70;2124.80;;;;;;4891515;29;20124;-86
2021/10/14 12:35:13;;;;;;;87.68;44.22;;;281.60;2176.00;;;;;;4887188;29;20044;-87
2021/10/14 12:37:39;;;;;;;134.35;67.40;;;256.90;2201.60;;;;;;4886030;29;20032;-84
2021/10/14 12:40:10;;;;;;;118.45;56.22;;;256.80;2201.60;;;;;;4885957;29;20032;-84
2021/10/14 12:42:46;;;;;;;112.97;56.25;;;256.70;2201.60;;;;;;4870939;29;20067;-85
2021/10/14 12:45:14;;;;;;;80.47;43.58;;;256.70;2201.60;;;;;;4892305;29;20032;-87
2021/10/14 12:47:49;;;;;;;14.80;10.68;;;256.70;2227.20;;;;;;4890302;29;20047;-86
2021/10/14 12:50:31;;;;;;;52.55;26.98;;;256.70;2176.00;;;;;;4872143;29;20036;-85
2021/10/14 12:53:16;;;;;;;15.20;9.25;;;256.80;2150.40;;;;;;4871606;29;20073;-86
2021/10/14 12:56:00;;;;;;;24.17;13.43;;;281.60;2150.40;;;;;;4893901;29;20039;-86
2021/10/14 12:58:28;;;;;;;32.28;19.67;;;281.60;2150.40;;;;;;4888572;29;20554;-86
2021/10/14 13:01:16;;;;;;;26.20;16.52;;;281.60;2124.80;;;;;;4893040;29;20489;-86
2021/10/14 13:03:42;;;;;;;49.47;26.67;;;281.70;2150.40;;;;;;4892636;29;20025;-85
2021/10/14 13:06:08;;;;;;;20.38;12.50;;;281.90;2150.40;;;;;;4890938;29;20100;-85
2021/10/14 13:08:36;;;;;;;21.52;14.48;;;282.40;2099.20;;;;;;4876035;29;20033;-96
2021/10/14 13:11:05;;;;;;;17.83;14.38;;;307.30;2124.80;;;;;;4890966;29;20013;-86
2021/10/14 13:13:32;;;;;;;18.42;15.80;;;307.80;2048.00;;;;;;4891157;29;20035;-95
2021/10/14 13:15:59;;;;;;;20.92;16.55;;;307.60;2048.00;;;;;;4890884;29;20028;-85
2021/10/14 13:18:25;;;;;;;25.38;17.83;;;307.30;2099.20;;;;;;4891495;29;20029;-85
2021/10/14 13:20:54;;;;;;;34.83;21.45;;;282.40;2099.20;;;;;;4874055;29;20116;-86
2021/10/14 13:23:20;;;;;;;52.13;32.25;;;282.20;2150.40;;;;;;4873475;29;20051;-86
2021/10/14 13:25:46;;;;;;;57.60;31.08;;;281.90;2227.20;;;;;;4874548;29;20203;-85
2021/10/14 13:28:13;;;;;;;23.58;19.15;;;282.00;2201.60;;;;;;4890808;29;20029;-85
2021/10/14 13:30:40;;;;;;;23.75;21.15;;;282.00;2201.60;;;;;;4906842;29;20048;-85
2021/10/14 13:33:07;;;;;;;24.90;21.83;;;282.00;2201.60;;;;;;4921838;29;20388;-86
2021/10/14 13:35:33;;;;;;;18.38;15.52;;;282.20;2201.60;;;;;;4953156;29;20031;-86
2021/10/14 13:37:59;;;;;;;21.48;17.85;;;307.70;2124.80;;;;;;4955019;29;20093;-85
2021/10/14 13:40:26;;;;;;;24.40;20.92;;;307.40;2176.00;;;;;;4936072;29;20061;-86
2021/10/14 13:42:55;;;;;;;31.63;27.42;;;282.50;2201.60;;;;;;4906782;29;20363;-85
2021/10/14 13:45:21;;;;;;;30.08;26.95;;;282.30;2201.60;;;;;;4906910;29;20037;-93
2021/10/14 13:47:47;;;;;;;22.38;20.08;;;282.20;2150.40;;;;;;4906861;29;20028;-85
2021/10/14 13:50:13;;;;;;;19.33;17.23;;;307.30;2176.00;;;;;;4907795;29;20059;-92
2021/10/14 13:52:40;;;;;;;17.00;14.57;;;308.10;2073.60;;;;;;4910499;29;20027;-96
2021/10/14 13:55:07;;;;;;;24.92;22.20;;;333.20;2048.00;;;;;;4911667;29;20036;-95
2021/10/14 13:57:33;;;;;;;33.20;28.67;;;333.50;2022.40;;;;;;4929722;29;20094;-84
2021/10/14 13:59:59;;;;;;;19.95;17.85;;;332.90;2048.00;;;;;;4912821;29;20470;-91
2021/10/14 14:02:28;;;;;;;31.48;25.73;;;307.80;2048.00;;;;;;4917643;29;20079;-84
2021/10/14 14:04:54;;;;;;;23.15;19.77;;;307.40;2099.20;;;;;;4938631;29;20023;-85
2021/10/14 14:07:20;;;;;;;27.45;24.55;;;282.40;2124.80;;;;;;4921897;29;20035;-85
2021/10/14 14:09:45;;;;;;;26.77;23.98;;;282.30;2176.00;;;;;;4916442;29;20664;-84
2021/10/14 14:12:11;;;;;;;34.85;27.08;;;282.30;2150.40;;;;;;4923208;29;20043;-85
2021/10/14 14:14:37;;;;;;;26.13;20.92;;;282.20;2201.60;;;;;;4907933;29;20083;-85
2021/10/14 14:17:03;;;;;;;22.52;19.83;;;281.90;2227.20;;;;;;4904577;29;20052;-84
2021/10/14 14:19:29;;;;;;;30.13;23.17;;;282.00;2227.20;;;;;;4903106;29;20028;-84
2021/10/14 14:21:55;;;;;;;29.65;20.98;;;281.90;2227.20;;;;;;4932590;29;20024;-79
2021/10/14 14:24:21;;;;;;;24.60;20.70;;;281.90;2252.80;;;;;;4902395;29;20054;-80
2021/10/14 14:26:47;;;;;;;24.08;19.73;;;281.80;2252.80;;;;;;4915908;29;20032;-79
2021/10/14 14:29:12;;;;;;;35.00;22.60;;;281.80;2252.80;;;;;;4905580;29;20441;-80
2021/10/14 14:31:38;;;;;;;40.47;28.23;;;281.70;2252.80;;;;;;4902049;29;20051;-79
2021/10/14 14:34:04;;;;;;;42.67;29.63;;;281.70;2278.40;;;;;;4919171;29;20032;-78
2021/10/14 14:36:31;;;;;;;53.75;32.35;;;281.70;2252.80;;;;;;4902055;29;20028;-80
2021/10/14 14:38:57;;;;;;;38.88;25.33;;;281.70;2278.40;;;;;;4902118;29;20028;-79
2021/10/14 14:41:23;;;;;;;44.05;25.48;;;281.60;2278.40;;;;;;4901941;29;20028;-80
2021/10/14 14:43:49;;;;;;;32.20;22.55;;;281.60;2278.40;;;;;;4902046;29;20441;-80
2021/10/14 14:46:18;;;;;;;25.73;19.77;;;281.60;2278.40;;;;;;4901710;29;20024;-79
2021/10/14 14:48:44;;;;;;;34.55;19.77;;;256.90;2252.80;;;;;;4903859;29;20087;-79
2021/10/14 14:51:11;;;;;;;26.75;19.77;;;256.80;2252.80;;;;;;4920902;29;20024;-80
2021/10/14 14:53:37;;;;;;;31.20;20.50;;;256.80;2252.80;;;;;;4937307;29;20023;-80
2021/10/14 14:56:06;;;;;;;387.52;193.10;;;256.80;2252.80;;;;;;4920273;29;20023;-80
2021/10/14 14:58:33;;;;;;;512.85;262.92;;;256.70;2252.80;;;;;;4920529;29;20062;-80
2021/10/14 15:01:01;;;;;;;545.22;300.85;;;256.70;2227.20;;;;;;4920654;29;20043;-78
2021/10/14 15:03:27;;;;;;;474.33;235.88;;;256.60;2227.20;;;;;;4920560;29;20028;-79
2021/10/14 15:05:53;;;;;;;521.95;264.15;;;256.60;2227.20;;;;;;4920529;29;20066;-80
2021/10/14 15:08:19;;;;;;;308.33;143.30;;;256.60;2252.80;;;;;;4920407;29;20083;-80
2021/10/14 15:10:45;;;;;;;97.30;46.15;;;256.50;2252.80;;;;;;4920434;29;20116;-79
2021/10/14 15:13:11;;;;;;;37.95;24.33;;;256.40;2252.80;;;;;;4937415;29;20039;-79
2021/10/14 15:15:40;;;;;;;53.47;20.05;;;256.50;2252.80;;;;;;4921952;29;20039;-93
2021/10/14 15:18:07;;;;;;;39.70;21.02;;;256.50;2252.80;;;;;;4900616;29;20040;-80
2021/10/14 15:20:33;;;;;;;51.97;27.95;;;256.60;2252.80;;;;;;4918239;29;20083;-80
2021/10/14 15:23:01;;;;;;;84.85;39.20;;;256.60;2227.20;;;;;;4901526;29;20492;-92
2021/10/14 15:25:27;;;;;;;86.13;43.42;;;256.60;2201.60;;;;;;4918491;29;20020;-79
2021/10/14 15:27:53;;;;;;;146.27;57.92;;;256.50;2227.20;;;;;;4918093;29;20052;-80
2021/10/14 15:30:19;;;;;;;136.68;53.00;;;256.40;2227.20;;;;;;4900938;29;20461;-80
2021/10/14 15:32:46;;;;;;;97.40;42.03;;;256.30;2227.20;;;;;;4901214;29;20046;-79
2021/10/14 15:35:12;;;;;;;65.32;32.80;;;256.30;2252.80;;;;;;4901126;29;20087;-80
2021/10/14 15:37:39;;;;;;;72.47;35.95;;;256.20;2252.80;;;;;;4918747;29;20128;-80
2021/10/14 15:40:06;;;;;;;78.13;41.00;;;256.20;2252.80;;;;;;4907551;29;20036;-80
2021/10/14 15:42:32;;;;;;;87.97;42.83;;;256.10;2252.80;;;;;;4909868;29;20035;-79
2021/10/14 15:44:58;;;;;;;64.10;38.25;;;256.00;2252.80;;;;;;4924938;29;20028;-79
2021/10/14 15:47:25;;;;;;;71.82;41.33;;;231.30;2252.80;;;;;;4909118;29;20126;-80
2021/10/14 15:49:54;;;;;;;73.68;42.00;;;231.30;2252.80;;;;;;4926727;29;20024;-78
2021/10/14 15:52:23;;;;;;;65.45;39.53;;;231.20;2252.80;;;;;;4925128;29;20031;-78
2021/10/14 15:54:49;;;;;;;111.55;55.53;;;231.20;2252.80;;;;;;4925300;29;20457;-79
2021/10/14 15:57:15;;;;;;;181.05;81.45;;;231.10;2252.80;;;;;;4909684;29;20046;-80
2021/10/14 15:59:41;;;;;;;140.85;67.25;;;231.10;2252.80;;;;;;4908087;29;20051;-80
2021/10/14 16:02:06;;;;;;;108.22;55.38;;;231.00;2252.80;;;;;;4908577;29;20027;-79
2021/10/14 16:04:32;;;;;;;102.32;54.72;;;230.90;2252.80;;;;;;4926566;29;20028;-79
2021/10/14 16:07:01;;;;;;;115.70;62.60;;;230.80;2252.80;;;;;;4926527;29;20027;-80
2021/10/14 16:09:26;;;;;;;112.00;55.60;;;230.70;2252.80;;;;;;4925712;29;20079;-81
2021/10/14 16:11:54;;;;;;;112.80;64.25;;;230.70;2252.80;;;;;;4907824;29;20031;-80
2021/10/14 16:14:20;;;;;;;151.52;86.00;;;230.70;2252.80;;;;;;4928831;29;20183;-79
2021/10/14 16:16:46;;;;;;;150.05;81.50;;;230.60;2252.80;;;;;;4900406;29;20139;-77
2021/10/14 16:19:12;;;;;;;183.40;100.75;;;230.50;2252.80;;;;;;4900388;29;20112;-79
2021/10/14 16:21:39;;;;;;;200.18;105.78;;;230.50;2252.80;;;;;;4913879;29;20047;-79
2021/10/14 16:24:05;;;;;;;233.82;108.07;;;230.40;2252.80;;;;;;4917355;29;20036;-80
2021/10/14 16:26:35;;;;;;;300.83;131.13;;;205.70;2252.80;;;;;;4912957;29;20039;-82
2021/10/14 16:29:03;;;;;;;370.10;168.10;;;205.70;2252.80;;;;;;4931307;29;20118;-79
2021/10/14 16:31:30;;;;;;;326.80;147.20;;;205.70;2252.80;;;;;;4907769;29;20515;-80
2021/10/14 16:34:23;;;;;;;273.08;128.57;;;205.60;2252.80;;;;;;4908178;29;20032;-78
2021/10/14 16:36:47;;;;;;;250.43;133.90;;;205.50;2252.80;;;;;;4926164;29;20392;-92
2021/10/14 16:39:13;;;;;;;352.30;177.45;;;205.50;2252.80;;;;;;4908343;29;20183;-79
2021/10/14 16:41:39;;;;;;;270.30;127.80;;;205.50;2252.80;;;;;;4907964;29;20500;-79
2021/10/14 16:44:06;;;;;;;212.27;96.50;;;205.40;2252.80;;;;;;4926218;29;20039;-79
2021/10/14 16:46:33;;;;;;;164.63;74.32;;;205.40;2252.80;;;;;;4908378;29;20032;-78
2021/10/14 16:49:01;;;;;;;151.80;65.43;;;205.40;2252.80;;;;;;4907569;29;20517;-80
2021/10/14 16:51:28;;;;;;;125.63;61.92;;;205.40;2252.80;;;;;;4909925;29;20032;-81
2021/10/14 16:53:54;;;;;;;109.55;55.17;;;205.30;2252.80;;;;;;4925351;29;20026;-80
2021/10/14 16:56:20;;;;;;;108.90;55.25;;;205.30;2252.80;;;;;;4909325;29;20043;-78
2021/10/14 16:58:46;;;;;;;85.70;45.58;;;205.30;2252.80;;;;;;4909478;29;20031;-78
2021/10/14 17:01:11;;;;;;;69.28;36.25;;;205.30;2252.80;;;;;;4925133;29;20096;-78
2021/10/14 17:03:38;;;;;;;59.33;29.88;;;205.30;2252.80;;;;;;4924762;29;20024;-79
2021/10/14 17:06:04;;;;;;;88.50;45.70;;;205.20;2252.80;;;;;;4908860;29;20083;-79
2021/10/14 17:08:30;;;;;;;105.88;56.60;;;205.20;2252.80;;;;;;4908289;29;20028;-84
2021/10/14 17:11:10;;;;;;;149.63;72.82;;;204.90;2252.80;;;;;;4905688;29;20499;-90
2021/10/14 17:13:36;;;;;;;150.98;73.70;;;204.90;2252.80;;;;;;4908616;29;20466;-78
2021/10/14 17:16:02;;;;;;;153.90;76.80;;;204.90;2252.80;;;;;;4907629;29;20034;-78
2021/10/14 17:18:32;;;;;;;129.40;66.60;;;204.90;2252.80;;;;;;4909171;29;20032;-78
2021/10/14 17:35:15;;;;;;;250.02;107.68;;;180.10;2252.80;;;;;;4939490;29;20042;-77
2021/10/14 17:40:15;;;;;;;257.85;131.00;;;180.00;2252.80;;;;;;4941350;29;20107;-78
2021/10/14 17:42:43;;;;;;;245.38;134.07;;;180.00;2252.80;;;;;;4927092;29;20044;-77
2021/10/14 17:45:14;;;;;;;215.63;119.30;;;179.90;2252.80;;;;;;4944586;29;20067;-77
2021/10/14 17:47:46;;;;;;;269.85;136.75;;;179.90;2252.80;;;;;;4946021;29;20189;-77
2021/10/14 17:50:36;;;;;;;408.13;189.15;;;179.90;2252.80;;;;;;4930086;29;20039;-77
2021/10/14 17:53:04;;;;;;;394.42;179.75;;;179.90;2252.80;;;;;;4938199;29;20040;-77
2021/10/14 17:55:35;;;;;;;315.73;158.93;;;179.90;2252.80;;;;;;4894477;29;20033;-77
2021/10/14 17:58:04;;;;;;;300.65;158.85;;;179.90;2252.80;;;;;;4893235;29;20056;-77
2021/10/14 18:01:04;;;;;;;268.35;138.00;;;179.90;2252.80;;;;;;4909839;29;20474;-77
2021/10/14 18:04:03;;;;;;;367.75;170.93;;;179.90;2252.80;;;;;;4928619;29;20093;-77
2021/10/14 18:09:54;;;;;;;268.17;129.70;;;179.80;2252.80;;;;;;4949337;29;20063;-78
2021/10/14 18:39:15;;;;;;;149.90;81.45;;;179.30;2252.80;;;;;;4896354;29;20040;-78